Time;durP1;ratioP1;P1;durP2;ratioP2;P2;SDS_P1;SDS_P2;PMS_P1;PMS_P2;Temp;Humidity;BMP_temperature;BMP_pressure;BME280_temperature;BME280_humidity;BME280_pressure;Samples;Min_cycle;Max_cycle;Signal;HPM_P1;HPM_P2
2022/07/17 00:00:42;;;;;;;1999.90;999.90;;;9.00;99.90;;;;;;5110360;27;20047;-75
2022/07/17 00:03:13;;;;;;;1999.90;999.90;;;8.90;99.90;;;;;;5109095;28;20047;-75
2022/07/17 00:05:39;;;;;;;1999.90;999.90;;;8.90;99.90;;;;;;5090796;28;20039;-75
2022/07/17 00:08:06;;;;;;;1999.90;999.90;;;8.90;99.90;;;;;;5105585;28;20032;-74
2022/07/17 00:10:32;;;;;;;1999.90;999.90;;;8.80;99.90;;;;;;5108644;28;20052;-75
2022/07/17 00:12:58;;;;;;;1999.90;999.90;;;8.80;99.90;;;;;;5090481;28;20083;-75
2022/07/17 00:15:23;;;;;;;1999.90;999.90;;;8.70;99.90;;;;;;5107763;28;20050;-75
2022/07/17 00:17:49;;;;;;;1999.90;999.90;;;8.70;99.90;;;;;;5090492;28;20836;-75
2022/07/17 00:20:15;;;;;;;1999.90;999.90;;;8.70;99.90;;;;;;5108023;28;20040;-75
2022/07/17 00:22:42;;;;;;;1999.90;999.90;;;8.70;99.90;;;;;;5087494;28;20039;-75
2022/07/17 00:25:09;;;;;;;1999.90;999.90;;;8.70;99.90;;;;;;5101182;28;20126;-75
2022/07/17 00:27:36;;;;;;;1999.90;999.90;;;8.70;99.90;;;;;;5105758;28;20035;-75
2022/07/17 00:30:03;;;;;;;1999.90;999.90;;;8.70;99.90;;;;;;5091889;28;20039;-75
2022/07/17 00:32:29;;;;;;;1999.90;999.90;;;8.60;99.90;;;;;;5088895;28;20050;-75
2022/07/17 00:34:55;;;;;;;1999.90;999.90;;;8.60;99.90;;;;;;5091945;28;20031;-76
2022/07/17 00:37:20;;;;;;;1999.90;999.90;;;8.60;99.90;;;;;;5105361;28;20063;-75
2022/07/17 00:39:46;;;;;;;1999.90;999.90;;;8.60;99.90;;;;;;5084084;28;20048;-75
2022/07/17 00:42:13;;;;;;;1999.90;999.90;;;8.50;99.90;;;;;;5061587;28;20396;-75
2022/07/17 00:44:40;;;;;;;1999.90;999.90;;;8.50;99.90;;;;;;5088559;28;20078;-75
2022/07/17 00:47:20;;;;;;;1999.90;999.90;;;8.40;99.90;;;;;;5118059;27;20035;-75
2022/07/17 00:49:46;;;;;;;1999.90;999.90;;;8.40;99.90;;;;;;5084125;28;20050;-75
2022/07/17 00:52:14;;;;;;;1999.90;999.90;;;8.40;99.90;;;;;;5116640;27;20066;-75
2022/07/17 00:54:41;;;;;;;1999.90;999.90;;;8.40;99.90;;;;;;5097392;28;20069;-75
2022/07/17 00:57:09;;;;;;;1999.90;999.90;;;8.40;99.90;;;;;;5091022;28;20035;-75
2022/07/17 00:59:36;;;;;;;1999.90;999.90;;;8.40;99.90;;;;;;5090399;28;20039;-75
2022/07/17 01:02:10;;;;;;;1999.90;999.90;;;8.30;99.90;;;;;;5072102;28;20048;-75
2022/07/17 01:04:37;;;;;;;1999.90;999.90;;;8.30;99.90;;;;;;5117739;27;20042;-75
2022/07/17 01:07:04;;;;;;;1999.90;999.90;;;8.30;99.90;;;;;;5097866;28;20049;-75
2022/07/17 01:09:31;;;;;;;1999.90;999.90;;;8.20;99.90;;;;;;5121140;27;20035;-75
2022/07/17 01:11:57;;;;;;;1999.90;999.90;;;8.20;99.90;;;;;;5120033;27;20109;-75
2022/07/17 01:14:24;;;;;;;1999.90;999.90;;;8.20;99.90;;;;;;5117091;27;20539;-75
2022/07/17 01:16:54;;;;;;;1999.90;999.90;;;8.10;99.90;;;;;;5089337;28;20035;-75
2022/07/17 01:19:21;;;;;;;1999.90;999.90;;;8.10;99.90;;;;;;5079548;28;20039;-75
2022/07/17 01:21:50;;;;;;;1999.90;999.90;;;8.10;99.90;;;;;;5095035;28;20057;-75
2022/07/17 01:24:17;;;;;;;1999.90;999.90;;;8.10;99.90;;;;;;5088069;28;20126;-75
2022/07/17 01:26:44;;;;;;;1999.90;999.90;;;8.10;99.90;;;;;;5105946;28;20115;-75
2022/07/17 01:29:11;;;;;;;1999.90;999.90;;;8.10;99.90;;;;;;5121680;27;20043;-75
2022/07/17 01:31:39;;;;;;;1999.90;999.90;;;8.10;99.90;;;;;;5072301;28;20055;-75
2022/07/17 01:34:06;;;;;;;1999.90;999.90;;;8.00;99.90;;;;;;5082922;28;20040;-75
2022/07/17 01:36:32;;;;;;;1999.90;999.90;;;8.00;99.90;;;;;;5086571;28;20039;-75
2022/07/17 01:38:58;;;;;;;1999.90;999.90;;;8.00;99.90;;;;;;5094055;28;20058;-75
2022/07/17 01:41:23;;;;;;;1999.90;999.90;;;8.00;99.90;;;;;;5101766;28;20504;-75
2022/07/17 01:43:49;;;;;;;1999.90;999.90;;;8.00;99.90;;;;;;5070574;28;20069;-75
2022/07/17 01:46:15;;;;;;;1999.90;999.90;;;8.00;99.90;;;;;;5079721;28;20096;-75
2022/07/17 01:48:40;;;;;;;1999.90;999.90;;;7.90;99.90;;;;;;5101889;28;20035;-75
2022/07/17 01:51:06;;;;;;;1999.90;999.90;;;7.90;99.90;;;;;;5121727;28;20039;-75
2022/07/17 01:53:32;;;;;;;1999.90;999.90;;;7.90;99.90;;;;;;5087834;28;20044;-75
2022/07/17 01:55:57;;;;;;;1999.90;999.90;;;7.90;99.90;;;;;;5118903;28;20036;-75
2022/07/17 01:58:23;;;;;;;1999.90;999.90;;;7.90;99.90;;;;;;5083520;28;20040;-75
2022/07/17 02:00:50;;;;;;;1999.90;999.90;;;7.90;99.90;;;;;;5114448;28;20074;-75
2022/07/17 02:03:16;;;;;;;1999.90;999.90;;;7.90;99.90;;;;;;5104547;28;20424;-75
2022/07/17 02:05:42;;;;;;;1999.90;999.90;;;7.80;99.90;;;;;;5071399;28;20122;-75
2022/07/17 02:08:08;;;;;;;1999.90;999.90;;;7.80;99.90;;;;;;5090754;28;20541;-75
2022/07/17 02:10:33;;;;;;;1999.90;999.90;;;7.80;99.90;;;;;;5109480;28;20044;-75
2022/07/17 02:12:59;;;;;;;1999.90;999.90;;;7.80;99.90;;;;;;5111813;28;20480;-75
2022/07/17 02:15:25;;;;;;;1999.90;999.90;;;7.80;99.90;;;;;;5111515;28;20047;-75
2022/07/17 02:17:51;;;;;;;1999.90;999.90;;;7.80;99.90;;;;;;5061608;28;20063;-75
2022/07/17 02:20:17;;;;;;;1999.90;999.90;;;7.80;99.90;;;;;;5103513;28;20047;-75
2022/07/17 02:22:43;;;;;;;1999.90;999.90;;;7.80;99.90;;;;;;5076328;28;20046;-75
2022/07/17 02:25:10;;;;;;;1999.90;999.90;;;7.80;99.90;;;;;;5085925;28;20043;-75
2022/07/17 02:27:36;;;;;;;1999.90;999.90;;;7.80;99.90;;;;;;5086545;28;20054;-75
2022/07/17 02:30:04;;;;;;;1999.90;999.90;;;7.80;99.90;;;;;;5104803;28;20032;-75
2022/07/17 02:32:30;;;;;;;1999.90;999.90;;;7.80;99.90;;;;;;5116698;28;20078;-75
2022/07/17 02:34:56;;;;;;;1999.90;999.90;;;7.80;99.90;;;;;;5083303;28;20067;-75
2022/07/17 02:37:21;;;;;;;1999.90;999.90;;;7.80;99.90;;;;;;5069661;28;20044;-75
2022/07/17 02:39:53;;;;;;;1999.90;999.90;;;7.70;99.90;;;;;;5089890;28;20043;-75
2022/07/17 02:42:23;;;;;;;1999.90;999.90;;;7.70;99.90;;;;;;5110591;28;20040;-75
2022/07/17 02:44:50;;;;;;;1999.90;999.90;;;7.70;99.90;;;;;;5108788;28;20066;-75
2022/07/17 02:47:23;;;;;;;1999.90;999.90;;;7.70;99.90;;;;;;5088385;28;20040;-76
2022/07/17 02:49:50;;;;;;;1999.90;999.90;;;7.70;99.90;;;;;;5107458;28;20043;-75
2022/07/17 02:52:16;;;;;;;1999.90;999.90;;;7.70;99.90;;;;;;5109459;28;20055;-75
2022/07/17 02:54:41;;;;;;;1999.90;999.90;;;7.70;99.90;;;;;;5108671;28;20492;-76
2022/07/17 02:57:07;;;;;;;1999.90;999.90;;;7.60;99.90;;;;;;5091883;28;20475;-76
2022/07/17 02:59:32;;;;;;;1999.90;999.90;;;7.70;99.90;;;;;;5100904;28;20048;-75
2022/07/17 03:01:58;;;;;;;1999.90;999.90;;;7.60;99.90;;;;;;5108771;28;20023;-75
2022/07/17 03:04:24;;;;;;;1999.90;999.90;;;7.60;99.90;;;;;;5092320;28;20041;-75
2022/07/17 03:06:49;;;;;;;1999.90;999.90;;;7.60;99.90;;;;;;5109313;28;20120;-75
2022/07/17 03:09:15;;;;;;;1999.90;999.90;;;7.70;99.90;;;;;;5108317;28;20050;-75
2022/07/17 03:11:41;;;;;;;1999.90;999.90;;;7.70;99.90;;;;;;5108233;28;20062;-75
2022/07/17 03:14:06;;;;;;;1999.90;999.90;;;7.60;99.90;;;;;;5090700;28;20047;-75
2022/07/17 03:16:32;;;;;;;1999.90;999.90;;;7.60;99.90;;;;;;5081297;28;20135;-75
2022/07/17 03:18:58;;;;;;;1999.90;999.90;;;7.60;99.90;;;;;;5088638;28;20039;-75
2022/07/17 03:21:23;;;;;;;1999.90;999.90;;;7.60;99.90;;;;;;5090763;28;20047;-75
2022/07/17 03:23:49;;;;;;;1999.90;999.90;;;7.70;99.90;;;;;;5089509;28;20596;-75
2022/07/17 03:26:14;;;;;;;1999.90;999.90;;;7.70;99.90;;;;;;5109045;28;20119;-76
2022/07/17 03:28:40;;;;;;;1999.90;999.90;;;7.60;99.90;;;;;;5110458;28;20104;-75
2022/07/17 03:31:05;;;;;;;1999.90;999.90;;;7.70;99.90;;;;;;5108170;28;20514;-75
2022/07/17 03:33:31;;;;;;;1999.90;999.90;;;7.60;99.90;;;;;;5108085;28;20040;-75
2022/07/17 03:35:57;;;;;;;1999.90;999.90;;;7.70;99.90;;;;;;5107524;28;20035;-75
2022/07/17 03:38:22;;;;;;;1999.90;999.90;;;7.60;99.90;;;;;;5106452;28;20067;-75
2022/07/17 03:40:48;;;;;;;1999.90;999.90;;;7.70;99.90;;;;;;5109006;28;20049;-75
2022/07/17 03:43:14;;;;;;;1999.90;999.90;;;7.70;99.90;;;;;;5090924;28;20035;-75
2022/07/17 03:45:39;;;;;;;1999.90;999.90;;;7.70;99.90;;;;;;5106219;28;20040;-75
2022/07/17 03:48:05;;;;;;;1999.90;999.90;;;7.70;99.90;;;;;;5091438;28;20039;-75
2022/07/17 03:50:31;;;;;;;1999.90;999.90;;;7.70;99.90;;;;;;5108260;28;20126;-75
2022/07/17 03:52:57;;;;;;;1999.90;999.90;;;7.80;99.90;;;;;;5090542;28;20122;-75
2022/07/17 03:55:22;;;;;;;1999.90;999.90;;;7.80;99.90;;;;;;5091732;28;20047;-75
2022/07/17 03:57:48;;;;;;;1999.90;999.90;;;7.80;99.90;;;;;;5108701;28;20092;-75
2022/07/17 04:00:14;;;;;;;1999.90;999.90;;;7.90;99.90;;;;;;5090060;28;20039;-75
2022/07/17 04:02:40;;;;;;;1999.90;999.90;;;8.00;99.90;;;;;;5108973;28;20044;-75
2022/07/17 04:05:10;;;;;;;1999.90;999.90;;;8.00;99.90;;;;;;5088405;28;20044;-75
2022/07/17 04:07:41;;;;;;;1999.90;999.90;;;8.10;99.90;;;;;;5090746;28;20380;-75
2022/07/17 04:10:08;;;;;;;1999.90;999.90;;;8.20;99.90;;;;;;5108574;28;20035;-75
2022/07/17 04:12:34;;;;;;;1999.90;999.90;;;8.20;99.90;;;;;;5106953;28;20040;-75
2022/07/17 04:15:01;;;;;;;1999.90;999.90;;;8.30;99.90;;;;;;5091562;28;20631;-75
2022/07/17 04:17:26;;;;;;;1999.90;999.90;;;8.40;99.90;;;;;;5089739;28;20092;-75
2022/07/17 04:19:53;;;;;;;1999.90;999.90;;;8.40;99.90;;;;;;5104610;28;20036;-75
2022/07/17 04:22:19;;;;;;;1999.90;999.90;;;8.40;99.90;;;;;;5091536;28;20495;-75
2022/07/17 04:24:45;;;;;;;1999.90;999.90;;;8.50;99.90;;;;;;5106656;28;20089;-76
2022/07/17 04:27:11;;;;;;;1999.90;999.90;;;8.60;99.90;;;;;;5089659;28;20039;-75
2022/07/17 04:29:37;;;;;;;1999.90;999.90;;;8.60;99.90;;;;;;5091855;28;20035;-75
2022/07/17 04:32:05;;;;;;;1999.90;999.90;;;8.70;99.90;;;;;;5107214;28;20397;-75
2022/07/17 04:34:32;;;;;;;1999.90;999.90;;;8.80;99.90;;;;;;5108264;28;20449;-75
2022/07/17 04:36:59;;;;;;;1999.90;999.90;;;8.80;99.90;;;;;;5106510;28;20088;-75
2022/07/17 04:39:39;;;;;;;1999.90;999.90;;;8.90;99.90;;;;;;5046051;28;20063;-75
2022/07/17 04:42:08;;;;;;;1999.90;999.90;;;9.00;99.90;;;;;;5025607;28;20416;-75
2022/07/17 04:44:33;;;;;;;1999.90;999.90;;;9.10;99.90;;;;;;5009490;28;20382;-76
2022/07/17 04:47:02;;;;;;;1999.90;999.90;;;9.20;99.90;;;;;;5012150;28;20045;-76
2022/07/17 04:49:42;;;;;;;;;;;9.30;99.90;;;;;;4966609;28;20047;-76
2022/07/17 04:52:10;;;;;;;1999.90;999.90;;;9.40;99.90;;;;;;4966172;28;19922;-76
2022/07/17 04:54:35;;;;;;;1999.90;999.90;;;9.50;99.90;;;;;;4966061;28;20050;-76
2022/07/17 04:57:01;;;;;;;1999.90;999.90;;;9.60;99.90;;;;;;4966778;28;20043;-75
2022/07/17 04:59:29;;;;;;;1999.90;999.90;;;9.70;99.90;;;;;;4961674;28;20050;-76
2022/07/17 05:01:55;;;;;;;1999.90;999.90;;;9.70;99.90;;;;;;4964058;28;20057;-75
2022/07/17 05:04:24;;;;;;;1999.90;999.90;;;9.80;99.90;;;;;;4944552;28;20059;-76
2022/07/17 05:06:50;;;;;;;1999.90;999.90;;;9.90;99.90;;;;;;4964736;28;20407;-75
2022/07/17 05:09:15;;;;;;;1999.90;999.90;;;10.00;99.90;;;;;;4966855;28;20042;-76
2022/07/17 05:11:43;;;;;;;1999.90;999.90;;;10.00;99.90;;;;;;4966633;28;20042;-76
2022/07/17 05:14:09;;;;;;;1999.90;999.90;;;10.10;99.90;;;;;;4942689;28;20259;-76
2022/07/17 05:16:35;;;;;;;1999.90;999.90;;;10.20;99.90;;;;;;4981576;28;20161;-76
2022/07/17 05:19:01;;;;;;;1999.90;999.90;;;10.20;99.90;;;;;;5021660;28;20034;-75
2022/07/17 05:21:26;;;;;;;1999.90;999.90;;;10.30;99.90;;;;;;5045003;28;20128;-76
2022/07/17 05:23:52;;;;;;;1999.90;999.90;;;10.40;99.90;;;;;;5007936;28;20121;-76
2022/07/17 05:26:18;;;;;;;1999.90;999.90;;;10.50;99.90;;;;;;5025569;28;20044;-75
2022/07/17 05:28:43;;;;;;;1999.90;999.90;;;10.60;99.90;;;;;;5088779;28;20395;-76
2022/07/17 05:31:09;;;;;;;1999.90;999.90;;;10.70;99.90;;;;;;5073994;28;20566;-76
2022/07/17 05:33:34;;;;;;;1999.90;999.90;;;10.80;99.90;;;;;;5086452;28;20043;-76
2022/07/17 05:36:01;;;;;;;1999.90;999.90;;;10.90;99.90;;;;;;5070369;28;20039;-76
2022/07/17 05:38:26;;;;;;;1999.90;999.90;;;11.10;99.90;;;;;;5091545;27;20054;-75
2022/07/17 05:40:52;;;;;;;1999.90;999.90;;;11.20;99.90;;;;;;5109276;27;20039;-76
2022/07/17 05:43:20;;;;;;;1999.90;999.90;;;11.40;99.90;;;;;;5093049;28;20045;-76
2022/07/17 05:45:46;;;;;;;1999.90;999.90;;;11.50;99.90;;;;;;5089456;28;20388;-76
2022/07/17 05:48:17;;;;;;;1999.90;999.90;;;11.70;99.90;;;;;;5103413;27;20144;-75
2022/07/17 05:50:43;;;;;;;1999.90;999.90;;;11.80;99.90;;;;;;5093455;28;20418;-76
2022/07/17 05:53:08;;;;;;;1999.90;999.90;;;12.00;99.90;;;;;;5091748;28;20035;-76
2022/07/17 05:55:34;;;;;;;1999.90;999.90;;;12.20;99.90;;;;;;5091614;28;20043;-75
2022/07/17 05:57:59;;;;;;;1999.90;999.90;;;12.30;99.90;;;;;;5110072;28;20197;-76
2022/07/17 06:00:25;;;;;;;1999.90;999.90;;;12.60;99.90;;;;;;5091261;28;20043;-76
2022/07/17 06:02:51;;;;;;;1999.90;999.90;;;12.90;99.90;;;;;;5092758;28;20668;-75
2022/07/17 06:05:16;;;;;;;1999.90;999.90;;;13.20;99.90;;;;;;5108411;28;20157;-75
2022/07/17 06:07:42;;;;;;;1999.90;999.90;;;13.50;99.90;;;;;;5091674;28;20035;-75
2022/07/17 06:10:28;;;;;;;1999.90;999.90;;;13.70;99.90;;;;;;5096401;28;20571;-75
2022/07/17 06:12:56;;;;;;;1999.90;999.90;;;14.40;99.90;;;;;;5024595;28;20251;-76
2022/07/17 06:15:23;;;;;;;1999.90;999.90;;;15.90;99.90;;;;;;5031976;28;20103;-75
2022/07/17 06:17:49;;;;;;;1999.90;999.90;;;17.30;99.90;;;;;;5016366;28;20132;-76
2022/07/17 06:20:15;;;;;;;1999.90;999.90;;;18.20;99.90;;;;;;5014460;28;20414;-76
2022/07/17 06:22:41;;;;;;;1999.90;999.90;;;19.00;99.90;;;;;;5031832;28;20045;-76
2022/07/17 06:25:08;;;;;;;1999.90;999.90;;;19.40;99.90;;;;;;5021324;28;20050;-76
2022/07/17 06:27:33;;;;;;;1999.90;999.90;;;19.30;99.90;;;;;;5028988;28;20068;-76
2022/07/17 06:29:59;;;;;;;1999.90;999.90;;;19.00;99.90;;;;;;5031995;28;20049;-76
2022/07/17 06:32:25;;;;;;;1999.90;999.90;;;18.90;99.90;;;;;;5027076;28;20048;-76
2022/07/17 06:34:51;;;;;;;1999.90;999.90;;;19.20;99.90;;;;;;5014734;28;20047;-76
2022/07/17 06:37:16;;;;;;;1999.90;999.90;;;19.80;99.90;;;;;;5027039;28;20068;-76
2022/07/17 06:39:42;;;;;;;1999.90;999.90;;;19.90;99.90;;;;;;5028037;28;20053;-76
2022/07/17 06:42:16;;;;;;;1999.90;999.90;;;19.40;99.90;;;;;;5027223;28;20195;-76
2022/07/17 06:44:57;;;;;;;1999.90;999.90;;;18.90;99.90;;;;;;4970252;28;20096;-76
2022/07/17 06:47:23;;;;;;;1999.90;999.90;;;18.60;99.90;;;;;;4946632;28;20062;-76
2022/07/17 06:49:48;;;;;;;1999.90;999.90;;;18.20;99.90;;;;;;4979425;28;20056;-76
2022/07/17 06:52:14;;;;;;;1999.90;999.90;;;17.90;99.90;;;;;;5026448;28;20513;-76
2022/07/17 06:54:40;;;;;;;1999.90;999.90;;;17.70;99.90;;;;;;5032108;28;20086;-77
2022/07/17 06:57:05;;;;;;;1999.90;999.90;;;17.50;99.90;;;;;;5030847;28;20440;-76
2022/07/17 06:59:31;;;;;;;1999.90;999.90;;;17.40;99.90;;;;;;5013903;28;20467;-76
2022/07/17 07:01:57;;;;;;;1999.90;999.90;;;17.20;99.90;;;;;;5031749;28;20075;-76
2022/07/17 07:04:31;;;;;;;1999.90;999.90;;;17.00;99.90;;;;;;5017727;28;20070;-76
2022/07/17 07:06:57;;;;;;;1999.90;999.90;;;16.90;99.90;;;;;;5014672;28;20533;-76
2022/07/17 07:09:26;;;;;;;1999.90;999.90;;;16.70;99.90;;;;;;5013995;28;20076;-76
2022/07/17 07:11:52;;;;;;;1999.90;999.90;;;16.60;99.90;;;;;;5031619;28;20114;-76
2022/07/17 07:14:17;;;;;;;1999.90;999.90;;;16.60;99.90;;;;;;5014534;28;20412;-76
2022/07/17 07:16:43;;;;;;;1999.90;999.90;;;16.60;99.90;;;;;;5020805;28;20166;-76
2022/07/17 07:19:09;;;;;;;1999.90;999.90;;;16.60;99.90;;;;;;5013305;28;20561;-76
2022/07/17 07:21:34;;;;;;;1999.90;999.90;;;16.60;99.90;;;;;;5031959;27;20054;-76
2022/07/17 07:24:00;;;;;;;1999.90;999.90;;;16.60;99.90;;;;;;5095433;27;20047;-76
2022/07/17 07:26:27;;;;;;;1999.90;999.90;;;16.70;99.90;;;;;;5106455;27;20031;-76
2022/07/17 07:28:53;;;;;;;1999.90;999.90;;;16.80;99.90;;;;;;5106981;27;20126;-76
2022/07/17 07:31:19;;;;;;;1999.90;999.90;;;16.90;99.90;;;;;;5109973;27;20114;-76
2022/07/17 07:33:44;;;;;;;1999.90;999.90;;;16.90;99.90;;;;;;5096888;27;20104;-76
2022/07/17 07:36:10;;;;;;;1999.90;999.90;;;17.00;99.90;;;;;;5112937;27;20035;-77
2022/07/17 07:38:36;;;;;;;1999.90;999.90;;;17.10;99.90;;;;;;5112071;27;20108;-77
2022/07/17 07:41:02;;;;;;;1999.90;999.90;;;17.20;99.90;;;;;;5095267;27;20417;-76
2022/07/17 07:43:28;;;;;;;1999.90;999.90;;;17.30;99.90;;;;;;5093785;27;20039;-76
2022/07/17 07:45:53;;;;;;;1999.90;999.90;;;17.30;99.90;;;;;;5113719;27;20515;-76
2022/07/17 07:48:19;;;;;;;1999.90;999.90;;;17.40;99.90;;;;;;5110126;27;20091;-77
2022/07/17 07:50:45;;;;;;;1999.90;999.90;;;17.40;99.90;;;;;;5094879;27;20042;-76
2022/07/17 07:53:10;;;;;;;1999.90;999.90;;;17.40;99.90;;;;;;5095564;27;20099;-76
2022/07/17 07:55:36;;;;;;;1999.90;999.90;;;17.50;99.90;;;;;;5094346;27;20045;-76
2022/07/17 07:58:10;;;;;;;1999.90;999.90;;;17.60;99.90;;;;;;5110769;27;20039;-76
2022/07/17 08:00:36;;;;;;;1999.90;999.90;;;17.80;99.90;;;;;;5112688;27;20386;-76
2022/07/17 08:03:03;;;;;;;1999.90;999.90;;;18.00;99.90;;;;;;5110965;27;20492;-76
2022/07/17 08:05:28;;;;;;;1999.90;999.90;;;18.20;99.90;;;;;;5091426;28;20035;-77
2022/07/17 08:07:54;;;;;;;1999.90;999.90;;;18.40;99.90;;;;;;5105403;27;21264;-76
2022/07/17 08:10:19;;;;;;;1999.90;999.90;;;18.80;99.90;;;;;;5090049;27;20067;-77
2022/07/17 08:12:45;;;;;;;1999.90;999.90;;;19.20;99.90;;;;;;5107975;27;20125;-76
2022/07/17 08:15:11;;;;;;;1999.90;999.90;;;19.70;99.90;;;;;;5087654;27;20051;-76
2022/07/17 08:17:37;;;;;;;1999.90;999.90;;;20.30;99.90;;;;;;5106668;27;20414;-77
2022/07/17 08:20:03;;;;;;;1999.90;999.90;;;20.40;99.90;;;;;;5108871;27;20043;-77
2022/07/17 08:22:29;;;;;;;1999.90;999.90;;;20.30;99.90;;;;;;5095438;27;20039;-77
2022/07/17 08:24:54;;;;;;;1999.90;999.90;;;20.10;99.90;;;;;;5095620;27;20091;-76
2022/07/17 08:27:21;;;;;;;1999.90;999.90;;;20.00;99.90;;;;;;5106298;27;20407;-76
2022/07/17 08:29:46;;;;;;;1999.90;999.90;;;20.30;99.90;;;;;;5111911;27;20498;-76
2022/07/17 08:32:12;;;;;;;1999.90;999.90;;;20.80;99.90;;;;;;5094468;27;20043;-77
2022/07/17 08:34:38;;;;;;;1999.90;999.90;;;21.40;99.90;;;;;;5110915;27;20039;-77
2022/07/17 08:37:03;;;;;;;1999.90;999.90;;;21.80;98.60;;;;;;5104769;27;20452;-77
2022/07/17 08:39:29;;;;;;;1999.90;999.90;;;22.20;98.80;;;;;;5103614;27;20134;-77
2022/07/17 08:41:55;;;;;;;1999.90;999.90;;;22.50;98.40;;;;;;5109297;27;20487;-77
2022/07/17 08:44:20;;;;;;;1999.90;999.90;;;23.00;96.50;;;;;;5095033;27;20043;-77
2022/07/17 08:46:47;;;;;;;1999.90;999.90;;;23.50;94.80;;;;;;5095128;27;20046;-77
2022/07/17 08:49:19;;;;;;;1999.90;999.90;;;23.80;94.40;;;;;;5098389;27;20054;-76
2022/07/17 08:51:44;;;;;;;1999.90;999.90;;;24.10;95.50;;;;;;5094916;27;20039;-77
2022/07/17 08:54:11;;;;;;;1999.90;999.90;;;24.30;93.80;;;;;;5112407;27;20084;-76
2022/07/17 08:56:37;;;;;;;1999.90;999.90;;;24.60;93.30;;;;;;5110267;27;20035;-76
2022/07/17 08:59:02;;;;;;;1999.90;999.90;;;24.60;85.70;;;;;;5103013;27;20444;-76
2022/07/17 09:01:28;;;;;;;1999.90;999.90;;;24.50;86.30;;;;;;5111633;27;20041;-77
2022/07/17 09:03:59;;;;;;;1999.90;999.90;;;24.40;84.40;;;;;;5104849;28;20036;-77
2022/07/17 09:06:26;;;;;;;1999.90;999.90;;;24.40;85.10;;;;;;5107469;27;20043;-77
2022/07/17 09:09:10;;;;;;;1999.90;999.90;;;24.50;87.90;;;;;;5095024;27;20411;-76
2022/07/17 09:11:47;;;;;;;1999.90;999.90;;;24.30;86.70;;;;;;5107404;27;20049;-76
2022/07/17 09:14:13;;;;;;;1999.90;999.90;;;24.30;87.20;;;;;;5112034;27;20058;-76
2022/07/17 09:16:55;;;;;;;1999.90;999.90;;;24.50;88.20;;;;;;5106351;27;20088;-76
2022/07/17 09:19:36;;;;;;;1999.90;999.90;;;24.70;84.80;;;;;;5094810;28;20426;-77
2022/07/17 09:22:15;;;;;;;1999.90;999.90;;;24.90;82.80;;;;;;5104159;27;20043;-77
2022/07/17 09:24:48;;;;;;;1999.90;999.90;;;25.10;82.80;;;;;;5107575;28;20039;-77
2022/07/17 09:27:28;;;;;;;1999.90;999.90;;;25.40;81.80;;;;;;5089747;27;20039;-77
2022/07/17 09:29:59;;;;;;;1999.90;999.90;;;25.60;81.20;;;;;;5109428;27;20031;-77
2022/07/17 09:32:28;;;;;;;1999.90;999.90;;;25.80;77.20;;;;;;5111242;27;20043;-77
2022/07/17 09:34:55;;;;;;;1999.90;999.90;;;26.00;78.70;;;;;;5111248;27;20038;-77
2022/07/17 09:37:23;;;;;;;1999.90;999.90;;;26.10;78.00;;;;;;5093818;27;20072;-77
2022/07/17 09:39:49;;;;;;;1999.90;999.90;;;26.00;78.30;;;;;;5098055;27;20043;-77
2022/07/17 09:42:23;;;;;;;1999.90;999.90;;;26.00;77.30;;;;;;5111006;27;20577;-77
2022/07/17 09:45:06;;;;;;;1999.90;999.90;;;25.80;74.00;;;;;;5111364;28;20074;-77
2022/07/17 09:47:34;;;;;;;1999.90;999.90;;;25.50;76.30;;;;;;5122338;27;20039;-77
2022/07/17 09:50:02;;;;;;;1999.90;999.90;;;25.50;76.70;;;;;;5110649;27;20046;-77
2022/07/17 09:52:30;;;;;;;1999.90;999.90;;;25.50;73.80;;;;;;5111192;28;20053;-77
2022/07/17 09:54:57;;;;;;;1999.90;999.90;;;25.30;74.40;;;;;;5105880;28;20054;-77
2022/07/17 09:57:31;;;;;;;1999.90;999.90;;;25.10;73.90;;;;;;5094303;28;20410;-77
2022/07/17 10:00:01;;;;;;;1999.90;999.90;;;25.10;72.90;;;;;;5093801;28;20039;-76
2022/07/17 10:02:27;;;;;;;1999.90;999.90;;;25.10;73.90;;;;;;5107744;28;20514;-76
2022/07/17 10:04:53;;;;;;;1999.90;999.90;;;25.30;76.30;;;;;;5108183;28;20041;-76
2022/07/17 10:07:20;;;;;;;1999.90;999.90;;;25.30;75.20;;;;;;5094398;28;20509;-77
2022/07/17 10:09:46;;;;;;;1999.90;999.90;;;25.30;75.30;;;;;;5087677;28;20097;-77
2022/07/17 10:12:13;;;;;;;1999.90;999.90;;;25.30;73.30;;;;;;5107424;28;20599;-76
2022/07/17 10:14:41;;;;;;;1999.90;999.90;;;25.40;74.60;;;;;;5100145;28;20068;-76
2022/07/17 10:17:11;;;;;;;1999.90;999.90;;;25.60;74.30;;;;;;5099689;28;20419;-77
2022/07/17 10:19:56;;;;;;;1999.90;999.90;;;25.80;74.00;;;;;;5110421;28;20043;-77
2022/07/17 10:22:23;;;;;;;1999.90;999.90;;;25.80;71.00;;;;;;5110910;28;20139;-76
2022/07/17 10:24:55;;;;;;;1999.90;999.90;;;25.80;73.10;;;;;;5111139;28;20042;-76
2022/07/17 10:27:29;;;;;;;1999.90;999.90;;;26.00;71.70;;;;;;5092613;28;20078;-77
2022/07/17 10:30:10;;;;;;;1999.90;999.90;;;25.90;70.10;;;;;;5099262;28;20492;-77
2022/07/17 10:32:37;;;;;;;1999.90;999.90;;;26.00;73.00;;;;;;5107274;28;20037;-77
2022/07/17 10:35:10;;;;;;;1999.90;999.90;;;26.00;72.60;;;;;;5107849;28;20122;-77
2022/07/17 10:37:36;;;;;;;1999.90;999.90;;;26.00;72.00;;;;;;5106471;28;20031;-77
2022/07/17 10:40:23;;;;;;;1999.90;999.90;;;26.00;73.30;;;;;;5109297;28;20073;-77
2022/07/17 10:42:57;;;;;;;1999.90;999.90;;;25.70;72.10;;;;;;5092877;28;20118;-76
2022/07/17 10:45:44;;;;;;;1999.90;999.90;;;25.50;70.80;;;;;;5111203;28;20155;-76
2022/07/17 10:48:13;;;;;;;1999.90;999.90;;;25.40;70.30;;;;;;5086308;28;20046;-77
2022/07/17 10:50:40;;;;;;;1999.90;999.90;;;25.50;70.30;;;;;;5091110;28;20444;-77
2022/07/17 10:53:27;;;;;;;1999.90;999.90;;;25.50;71.20;;;;;;5110729;28;20050;-77
2022/07/17 10:55:56;;;;;;;1999.90;999.90;;;25.60;72.00;;;;;;5105776;28;20047;-76
2022/07/17 10:58:31;;;;;;;1999.90;999.90;;;25.70;72.10;;;;;;5088797;28;20039;-76
2022/07/17 11:01:15;;;;;;;1999.90;999.90;;;25.90;72.00;;;;;;5101308;27;20035;-76
2022/07/17 11:03:59;;;;;;;1999.90;999.90;;;26.00;70.80;;;;;;5103585;27;20047;-77
2022/07/17 11:06:34;;;;;;;1999.90;999.90;;;26.00;70.10;;;;;;5115623;27;20038;-76
2022/07/17 11:09:05;;;;;;;1999.90;999.90;;;26.10;71.50;;;;;;5101850;27;20043;-76
2022/07/17 11:11:37;;;;;;;1999.90;999.90;;;26.10;69.90;;;;;;5095019;27;20042;-76
2022/07/17 11:14:17;;;;;;;1999.90;999.90;;;26.20;69.50;;;;;;5110593;27;20043;-77
2022/07/17 11:16:52;;;;;;;1999.90;999.90;;;26.40;68.30;;;;;;5116072;27;20060;-76
2022/07/17 11:19:31;;;;;;;1999.90;999.90;;;26.50;69.90;;;;;;5108186;27;20120;-76
2022/07/17 11:21:58;;;;;;;1999.90;999.90;;;26.60;69.30;;;;;;5113589;27;20399;-76
2022/07/17 11:24:26;;;;;;;1999.90;999.90;;;26.50;67.50;;;;;;5104886;28;20118;-76
2022/07/17 11:26:52;;;;;;;1999.90;999.90;;;26.40;67.20;;;;;;5104074;27;20043;-76
2022/07/17 11:29:18;;;;;;;1999.90;999.90;;;26.50;65.40;;;;;;5110733;27;20054;-77
2022/07/17 11:31:44;;;;;;;1999.90;999.90;;;26.50;67.90;;;;;;5096535;27;20039;-76
2022/07/17 11:34:11;;;;;;;1999.90;999.90;;;26.60;68.40;;;;;;5104473;27;20127;-76
2022/07/17 11:36:43;;;;;;;1999.90;999.90;;;26.70;68.00;;;;;;5110357;27;20042;-77
2022/07/17 11:39:11;;;;;;;1999.90;999.90;;;26.80;67.10;;;;;;5097742;27;20139;-76
2022/07/17 11:41:39;;;;;;;1999.90;999.90;;;26.80;67.60;;;;;;5110828;27;20035;-76
2022/07/17 11:44:11;;;;;;;1999.90;999.90;;;26.70;67.00;;;;;;5109268;27;20035;-76
2022/07/17 11:46:38;;;;;;;1999.90;999.90;;;26.80;68.40;;;;;;5112514;27;20042;-76
2022/07/17 11:49:04;;;;;;;1999.90;999.90;;;26.50;63.80;;;;;;5090759;27;20293;-76
2022/07/17 11:51:38;;;;;;;1999.90;999.90;;;26.60;65.50;;;;;;5111912;27;20047;-76
2022/07/17 11:54:05;;;;;;;1999.90;999.90;;;26.80;66.70;;;;;;5102317;27;20042;-76
2022/07/17 11:56:31;;;;;;;1999.90;999.90;;;26.90;66.70;;;;;;5090790;27;20039;-77
2022/07/17 11:58:57;;;;;;;1999.90;999.90;;;27.00;65.20;;;;;;5106664;27;20091;-77
2022/07/17 12:01:23;;;;;;;1999.90;999.90;;;27.00;65.20;;;;;;5112358;27;20050;-76
2022/07/17 12:03:59;;;;;;;1999.90;999.90;;;26.80;63.50;;;;;;5094808;27;20122;-77
2022/07/17 12:06:29;;;;;;;1999.90;999.90;;;26.60;63.10;;;;;;5095351;27;20483;-76